createdAt,value
2023-03-20T00:02:23.133Z,98623.00
2023-03-20T00:04:50.108Z,98626.97
2023-03-20T00:07:16.745Z,98626.19
2023-03-20T00:09:43.293Z,98629.81
2023-03-20T00:12:24.070Z,98624.56
2023-03-20T00:14:50.752Z,98620.75
2023-03-20T00:17:21.104Z,98628.13
2023-03-20T00:19:48.179Z,98632.50
2023-03-20T00:22:14.664Z,98625.84
2023-03-20T00:24:41.410Z,98631.63
2023-03-20T00:27:14.338Z,98632.47
2023-03-20T00:29:41.150Z,98631.84
2023-03-20T00:32:15.034Z,98638.00
2023-03-20T00:34:41.978Z,98637.78
2023-03-20T00:37:11.416Z,98639.69
2023-03-20T00:39:37.913Z,98638.28
2023-03-20T00:42:11.421Z,98640.09
2023-03-20T00:44:45.708Z,98636.28
2023-03-20T00:47:18.551Z,98642.09
2023-03-20T00:49:49.828Z,98639.25
2023-03-20T00:52:19.581Z,98636.75
2023-03-20T00:54:46.614Z,98647.06
2023-03-20T00:57:30.514Z,98650.25
2023-03-20T01:00:02.425Z,98644.16
2023-03-20T01:02:31.129Z,98644.28
2023-03-20T01:04:58.425Z,98651.44
2023-03-20T01:07:24.948Z,98659.19
2023-03-20T01:09:52.579Z,98658.84
2023-03-20T01:12:19.230Z,98657.56
2023-03-20T01:14:57.358Z,98663.59
2023-03-20T01:17:26.761Z,98661.38
2023-03-20T01:19:53.997Z,98664.44
2023-03-20T01:22:20.537Z,98666.31
2023-03-20T01:24:47.807Z,98667.69
2023-03-20T01:27:18.128Z,98670.53
2023-03-20T01:29:45.609Z,98671.50
2023-03-20T01:32:18.601Z,98678.66
2023-03-20T01:34:45.107Z,98683.66
2023-03-20T01:37:23.853Z,98675.25
2023-03-20T01:39:50.626Z,98672.47
2023-03-20T01:42:18.117Z,98670.81
2023-03-20T01:44:45.567Z,98675.44
2023-03-20T01:47:19.041Z,98672.59
2023-03-20T01:50:28.983Z,98681.50
2023-03-20T01:53:05.915Z,98682.44
2023-03-20T01:55:33.380Z,98685.38
2023-03-20T01:58:08.933Z,98688.66
2023-03-20T02:00:36.619Z,98686.75
2023-03-20T02:03:07.458Z,98694.97
2023-03-20T02:05:35.320Z,98685.28
2023-03-20T02:08:32.600Z,98699.81
2023-03-20T02:11:01.987Z,98699.59
2023-03-20T02:13:31.715Z,98695.38
2023-03-20T02:16:12.194Z,98694.31
2023-03-20T02:18:45.657Z,98687.31
2023-03-20T02:21:45.384Z,98684.38
2023-03-20T02:25:24.567Z,98694.06
2023-03-20T02:28:39.124Z,98689.13
2023-03-20T02:31:42.104Z,98690.53
2023-03-20T02:34:45.836Z,98696.19
2023-03-20T02:37:47.740Z,98693.25
2023-03-20T02:40:47.960Z,98699.13
2023-03-20T02:43:43.069Z,98693.06
2023-03-20T02:46:35.820Z,98687.06
2023-03-20T02:49:33.860Z,98684.63
2023-03-20T02:52:28.963Z,98686.31
2023-03-20T02:55:35.556Z,98705.50
2023-03-20T02:58:26.584Z,98710.06
2023-03-20T03:01:16.035Z,98705.69
2023-03-20T03:04:02.115Z,98709.63
2023-03-20T03:06:32.597Z,98712.56
2023-03-20T03:09:09.389Z,98716.59
2023-03-20T03:11:43.835Z,98715.13
2023-03-20T03:14:29.579Z,98715.03
2023-03-20T03:17:01.052Z,98711.44
2023-03-20T03:19:30.019Z,98707.13
2023-03-20T03:21:56.774Z,98711.56
2023-03-20T03:24:41.412Z,98714.56
2023-03-20T03:27:42.578Z,98709.41
2023-03-20T03:30:21.891Z,98715.78
2023-03-20T03:33:20.058Z,98711.94
2023-03-20T03:35:48.317Z,98718.13
2023-03-20T03:38:54.083Z,98716.06
2023-03-20T03:41:39.860Z,98722.06
2023-03-20T03:44:16.038Z,98731.88
2023-03-20T03:47:11.414Z,98732.72
2023-03-20T03:49:46.044Z,98728.06
2023-03-20T03:52:22.459Z,98734.66
2023-03-20T03:54:56.685Z,98737.09
2023-03-20T03:57:37.660Z,98737.94
2023-03-20T04:00:07.215Z,98744.41
2023-03-20T04:02:35.674Z,98749.94
2023-03-20T04:05:06.353Z,98740.25
2023-03-20T04:07:32.850Z,98746.13
2023-03-20T04:09:59.327Z,98748.16
2023-03-20T04:12:35.282Z,98738.47
2023-03-20T04:15:03.601Z,98741.09
2023-03-20T04:17:31.228Z,98742.72
2023-03-20T04:19:58.271Z,98730.09
2023-03-20T04:22:24.878Z,98724.84
2023-03-20T04:24:52.599Z,98720.34
2023-03-20T04:27:19.864Z,98717.09
2023-03-20T04:29:46.664Z,98716.75
2023-03-20T04:32:13.329Z,98719.69
2023-03-20T04:34:39.868Z,98724.00
2023-03-20T04:37:08.290Z,98715.06
2023-03-20T04:39:36.750Z,98705.88
2023-03-20T04:42:06.042Z,98714.72
2023-03-20T04:44:32.653Z,98715.09
2023-03-20T04:46:59.113Z,98712.63
2023-03-20T04:49:25.781Z,98710.00
2023-03-20T04:51:53.167Z,98704.56
2023-03-20T04:54:19.674Z,98703.91
2023-03-20T04:56:46.233Z,98715.19
2023-03-20T04:59:12.864Z,98719.69
2023-03-20T05:01:39.486Z,98710.97
2023-03-20T05:04:06.518Z,98704.88
2023-03-20T05:06:33.798Z,98708.25
2023-03-20T05:09:00.948Z,98715.84
2023-03-20T05:11:28.743Z,98722.50
2023-03-20T05:13:55.677Z,98726.47
2023-03-20T05:16:22.197Z,98713.53
2023-03-20T05:18:48.816Z,98715.94
2023-03-20T05:21:15.848Z,98716.03
2023-03-20T05:23:42.317Z,98708.63
2023-03-20T05:26:08.853Z,98711.50
2023-03-20T05:28:35.394Z,98713.78
2023-03-20T05:31:02.015Z,98714.72
2023-03-20T05:33:28.665Z,98709.75
2023-03-20T05:35:55.369Z,98709.03
2023-03-20T05:38:25.625Z,98718.13
2023-03-20T05:41:00.336Z,98717.22
2023-03-20T05:43:29.031Z,98726.88
2023-03-20T05:45:56.866Z,98723.56
2023-03-20T05:48:23.940Z,98709.03
2023-03-20T05:50:50.882Z,98725.66
2023-03-20T05:53:17.457Z,98720.75
2023-03-20T05:55:44.754Z,98707.53
2023-03-20T05:58:12.196Z,98713.91
2023-03-20T06:00:39.840Z,98705.47
2023-03-20T06:03:09.546Z,98704.22
2023-03-20T06:05:36.645Z,98697.38
2023-03-20T06:08:04.618Z,98705.28
2023-03-20T06:10:31.542Z,98708.34
2023-03-20T06:13:01.068Z,98701.69
2023-03-20T06:15:28.799Z,98701.03
2023-03-20T06:17:56.388Z,98715.13
2023-03-20T06:20:24.242Z,98707.38
2023-03-20T06:22:51.239Z,98706.72
2023-03-20T06:25:18.996Z,98725.00
2023-03-20T06:27:49.067Z,98723.22
2023-03-20T06:30:16.425Z,98730.34
2023-03-20T06:32:43.772Z,98729.00
2023-03-20T06:35:11.978Z,98729.00
2023-03-20T06:37:38.672Z,98729.00
2023-03-20T06:40:06.845Z,98734.47
2023-03-20T06:42:33.501Z,98729.00
2023-03-20T06:45:00.147Z,98729.09
2023-03-20T06:47:27.055Z,98720.06
2023-03-20T06:49:53.568Z,98735.84
2023-03-20T06:52:25.062Z,98724.66
2023-03-20T06:54:52.086Z,98723.94
2023-03-20T06:57:18.620Z,98714.72
2023-03-20T06:59:45.475Z,98702.22
2023-03-20T07:02:12.072Z,98700.25
2023-03-20T07:04:39.292Z,98706.91
2023-03-20T07:07:05.829Z,98706.53
2023-03-20T07:09:33.070Z,98712.81
2023-03-20T07:12:00.160Z,98708.22
2023-03-20T07:14:26.690Z,98710.09
2023-03-20T07:16:53.282Z,98722.13
2023-03-20T07:19:20.319Z,98723.50
2023-03-20T07:21:47.081Z,98723.22
2023-03-20T07:24:14.372Z,98723.78
2023-03-20T07:26:41.232Z,98742.69
2023-03-20T07:29:08.001Z,98738.34
2023-03-20T07:31:34.658Z,98749.47
2023-03-20T07:34:01.234Z,98754.16
2023-03-20T07:36:27.775Z,98758.88
2023-03-20T07:38:54.253Z,98758.50
2023-03-20T07:41:20.846Z,98766.75
2023-03-20T07:43:47.301Z,98764.31
2023-03-20T07:46:13.919Z,98765.63
2023-03-20T07:48:41.164Z,98769.06
2023-03-20T07:51:08.060Z,98776.66
2023-03-20T07:53:34.573Z,98779.22
2023-03-20T07:56:01.135Z,98780.88
2023-03-20T07:58:27.628Z,98786.72
2023-03-20T08:00:56.482Z,98784.47
2023-03-20T08:03:23.054Z,98781.09
2023-03-20T08:05:49.935Z,98783.69
2023-03-20T08:08:16.606Z,98780.88
2023-03-20T08:10:43.467Z,98760.19
2023-03-20T08:13:10.003Z,98771.84
2023-03-20T08:15:36.738Z,98772.22
2023-03-20T08:18:03.825Z,98775.19
2023-03-20T08:20:31.613Z,98783.09
2023-03-20T08:22:58.122Z,98779.22
2023-03-20T08:25:24.584Z,98790.25
2023-03-20T08:27:51.145Z,98789.72
2023-03-20T08:30:17.782Z,98798.75
2023-03-20T08:32:44.352Z,98805.97
2023-03-20T08:35:25.770Z,98803.81
2023-03-20T08:37:56.545Z,98800.53
2023-03-20T08:40:23.439Z,98801.56
2023-03-20T08:42:49.980Z,98797.31
2023-03-20T08:45:17.043Z,98808.50
2023-03-20T08:47:43.702Z,98802.34
2023-03-20T08:50:11.935Z,98802.63
2023-03-20T08:52:38.460Z,98810.16
2023-03-20T08:55:06.737Z,98815.56
2023-03-20T08:57:33.184Z,98808.34
2023-03-20T08:59:59.679Z,98800.91
2023-03-20T09:02:26.456Z,98800.56
2023-03-20T09:04:52.999Z,98798.97
2023-03-20T09:07:19.522Z,98796.94
2023-03-20T09:09:45.989Z,98798.16
2023-03-20T09:12:12.520Z,98790.25
2023-03-20T09:14:39.408Z,98806.13
2023-03-20T09:17:05.937Z,98805.63
2023-03-20T09:19:32.465Z,98809.41
2023-03-20T09:21:59.809Z,98815.75
2023-03-20T09:24:26.689Z,98813.56
2023-03-20T09:26:53.194Z,98810.81
2023-03-20T09:29:19.683Z,98806.44
2023-03-20T09:31:46.288Z,98814.22
2023-03-20T09:34:12.906Z,98824.72
2023-03-20T09:36:39.383Z,98823.34
2023-03-20T09:39:05.918Z,98822.03
2023-03-20T09:41:45.861Z,98822.25
2023-03-20T09:45:08.372Z,98812.47
2023-03-20T09:47:59.709Z,98815.72
2023-03-20T09:50:39.891Z,98812.63
2023-03-20T09:53:33.330Z,98811.91
2023-03-20T09:56:00.673Z,98809.22
2023-03-20T09:58:34.109Z,98811.75
2023-03-20T10:01:06.657Z,98817.44
2023-03-20T10:03:47.701Z,98806.84
2023-03-20T10:06:17.861Z,98811.94
2023-03-20T10:08:46.447Z,98805.19
2023-03-20T10:11:23.560Z,98809.22
2023-03-20T10:14:22.429Z,98802.25
2023-03-20T10:17:11.849Z,98807.41
2023-03-20T10:19:53.499Z,98798.25
2023-03-20T10:22:32.412Z,98799.81
2023-03-20T10:25:15.675Z,98792.41
2023-03-20T10:28:01.572Z,98791.22
2023-03-20T10:30:51.307Z,98790.19
2023-03-20T10:33:40.429Z,98795.25
2023-03-20T10:36:38.965Z,98784.69
2023-03-20T10:39:31.586Z,98789.72
2023-03-20T10:42:03.802Z,98787.94
2023-03-20T10:44:46.262Z,98780.44
2023-03-20T10:47:19.051Z,98783.63
2023-03-20T10:50:09.074Z,98766.69
2023-03-20T10:52:41.732Z,98775.84
2023-03-20T10:55:16.662Z,98781.09
2023-03-20T10:57:53.238Z,98785.63
2023-03-20T11:00:24.273Z,98776.69
2023-03-20T11:02:50.910Z,98772.25
2023-03-20T11:05:32.564Z,98764.97
2023-03-20T11:08:12.397Z,98772.13
2023-03-20T11:10:42.351Z,98765.06
2023-03-20T11:13:43.850Z,98762.56
2023-03-20T11:16:20.323Z,98756.22
2023-03-20T11:18:49.331Z,98764.03
2023-03-20T11:21:22.667Z,98766.19
2023-03-20T11:23:50.842Z,98761.69
2023-03-20T11:26:34.674Z,98762.50
2023-03-20T11:29:01.682Z,98763.13
2023-03-20T11:31:40.664Z,98760.78
2023-03-20T11:34:07.400Z,98756.34
2023-03-20T11:36:36.680Z,98747.03
2023-03-20T11:39:16.122Z,98743.03
2023-03-20T11:41:50.195Z,98748.75
2023-03-20T11:44:36.648Z,98755.06
2023-03-20T11:47:12.144Z,98756.47
2023-03-20T11:49:57.523Z,98750.19
2023-03-20T11:52:32.802Z,98750.00
2023-03-20T11:55:04.269Z,98742.59
2023-03-20T11:57:42.708Z,98745.78
2023-03-20T12:00:11.930Z,98737.25
2023-03-20T12:02:41.339Z,98742.00
2023-03-20T12:05:31.470Z,98731.97
2023-03-20T12:08:24.298Z,98739.03
2023-03-20T12:10:59.417Z,98743.75
2023-03-20T12:13:37.721Z,98737.03
2023-03-20T12:16:16.117Z,98739.22
2023-03-20T12:18:51.320Z,98728.94
2023-03-20T12:21:36.468Z,98725.84
2023-03-20T12:24:31.202Z,98719.66
2023-03-20T12:27:37.833Z,98720.22
2023-03-20T12:30:20.884Z,98722.25
2023-03-20T12:33:20.503Z,98720.03
2023-03-20T12:35:52.221Z,98719.38
2023-03-20T12:38:28.597Z,98714.50
2023-03-20T12:41:10.510Z,98717.81
2023-03-20T12:44:05.227Z,98704.84
2023-03-20T12:46:41.914Z,98713.47
2023-03-20T12:49:32.890Z,98720.66
2023-03-20T12:52:35.424Z,98712.91
2023-03-20T12:55:25.951Z,98715.16
2023-03-20T12:58:24.493Z,98716.09
2023-03-20T13:01:05.774Z,98704.69
2023-03-20T13:03:49.590Z,98707.44
2023-03-20T13:06:49.694Z,98714.44
2023-03-20T13:09:51.979Z,98704.44
2023-03-20T13:12:43.833Z,98703.38
2023-03-20T13:16:01.711Z,98692.47
2023-03-20T13:18:45.422Z,98702.19
2023-03-20T13:21:24.516Z,98707.69
2023-03-20T13:24:10.951Z,98704.09
2023-03-20T13:26:58.453Z,98700.50
2023-03-20T13:29:34.245Z,98692.19
2023-03-20T13:32:24.302Z,98688.00
2023-03-20T13:34:54.480Z,98692.75
2023-03-20T13:38:11.026Z,98685.44
2023-03-20T13:40:44.028Z,98686.88
2023-03-20T13:43:27.901Z,98684.00
2023-03-20T13:46:08.684Z,98684.63
2023-03-20T13:48:43.514Z,98689.81
2023-03-20T13:51:40.928Z,98686.25
2023-03-20T13:54:16.684Z,98693.09
2023-03-20T13:57:10.529Z,98686.88
2023-03-20T13:59:58.276Z,98684.78
2023-03-20T14:02:53.962Z,98689.47
2023-03-20T14:05:23.874Z,98679.75
2023-03-20T14:07:57.378Z,98676.41
2023-03-20T14:10:24.143Z,98685.16
2023-03-20T14:13:00.800Z,98685.25
2023-03-20T14:15:34.672Z,98679.06
2023-03-20T14:18:16.662Z,98687.69
2023-03-20T14:20:53.230Z,98679.78
2023-03-20T14:23:49.188Z,98686.47
2023-03-20T14:26:27.069Z,98675.09
2023-03-20T14:29:02.535Z,98680.69
2023-03-20T14:31:37.880Z,98680.47
2023-03-20T14:34:12.216Z,98681.63
2023-03-20T14:37:05.479Z,98682.34
2023-03-20T14:40:04.088Z,98685.13
2023-03-20T14:43:11.262Z,98688.91
2023-03-20T14:45:47.359Z,98690.56
2023-03-20T14:48:31.020Z,98691.63
2023-03-20T14:51:18.426Z,98689.88
2023-03-20T14:54:21.820Z,98689.88
2023-03-20T14:56:50.590Z,98692.94
2023-03-20T14:59:20.414Z,98679.03
2023-03-20T15:01:58.685Z,98683.25
2023-03-20T15:04:30.950Z,98682.94
2023-03-20T15:07:01.942Z,98688.00
2023-03-20T15:09:33.054Z,98682.81
2023-03-20T15:12:04.197Z,98677.63
2023-03-20T15:14:55.241Z,98679.25
2023-03-20T15:17:39.749Z,98679.44
2023-03-20T15:20:19.120Z,98671.22
2023-03-20T15:23:01.235Z,98669.28
2023-03-20T15:25:45.838Z,98662.13
2023-03-20T15:28:19.518Z,98653.47
2023-03-20T15:30:49.214Z,98656.78
2023-03-20T15:33:28.567Z,98664.97
2023-03-20T15:35:56.491Z,98671.50
2023-03-20T15:38:32.988Z,98665.94
2023-03-20T15:40:59.534Z,98663.97
2023-03-20T15:43:27.840Z,98666.81
2023-03-20T15:46:16.268Z,98665.16
2023-03-20T15:48:49.185Z,98661.28
2023-03-20T15:51:18.059Z,98658.47
2023-03-20T15:53:48.352Z,98665.22
2023-03-20T15:56:19.559Z,98666.97
2023-03-20T15:58:52.504Z,98666.56
2023-03-20T16:01:22.875Z,98662.13
2023-03-20T16:03:51.284Z,98656.19
2023-03-20T16:06:21.333Z,98652.81
2023-03-20T16:09:06.290Z,98653.03
2023-03-20T16:11:43.134Z,98652.59
2023-03-20T16:14:23.300Z,98652.38
2023-03-20T16:16:53.578Z,98648.19
2023-03-20T16:19:20.557Z,98651.03
2023-03-20T16:22:02.662Z,98639.63
2023-03-20T16:24:39.340Z,98643.50
2023-03-20T16:27:10.354Z,98652.66
2023-03-20T16:29:42.637Z,98644.44
2023-03-20T16:32:31.608Z,98652.22
2023-03-20T16:35:01.365Z,98648.75
2023-03-20T16:37:42.803Z,98646.44
2023-03-20T16:40:34.628Z,98652.97
2023-03-20T16:43:17.754Z,98650.03
2023-03-20T16:45:51.292Z,98654.53
2023-03-20T16:48:26.636Z,98648.22
2023-03-20T16:51:17.751Z,98648.97
2023-03-20T16:53:58.270Z,98651.59
2023-03-20T16:56:38.238Z,98656.03
2023-03-20T16:59:11.549Z,98646.94
2023-03-20T17:01:44.789Z,98647.91
2023-03-20T17:04:23.876Z,98657.28
2023-03-20T17:06:59.173Z,98654.13
2023-03-20T17:09:31.592Z,98656.56
2023-03-20T17:12:14.512Z,98658.94
2023-03-20T17:14:41.547Z,98652.63
2023-03-20T17:17:20.942Z,98655.59
2023-03-20T17:19:51.795Z,98653.91
2023-03-20T17:22:25.344Z,98650.22
2023-03-20T17:24:52.740Z,98649.78
2023-03-20T17:27:20.629Z,98646.13
2023-03-20T17:29:51.042Z,98647.38
2023-03-20T17:32:23.885Z,98658.56
2023-03-20T17:34:51.374Z,98646.56
2023-03-20T17:37:27.149Z,98641.47
2023-03-20T17:39:55.726Z,98648.03
2023-03-20T17:42:30.545Z,98643.72
2023-03-20T17:44:59.092Z,98642.31
2023-03-20T17:47:27.914Z,98643.06
2023-03-20T17:49:54.875Z,98647.56
2023-03-20T17:52:28.201Z,98647.75
2023-03-20T17:54:55.011Z,98652.31
2023-03-20T17:57:31.573Z,98648.81
2023-03-20T17:59:58.784Z,98651.34
2023-03-20T18:02:25.516Z,98648.47
2023-03-20T18:04:52.508Z,98652.38
2023-03-20T18:07:20.093Z,98653.44
2023-03-20T18:09:47.415Z,98653.88
2023-03-20T18:12:17.452Z,98652.81
2023-03-20T18:14:45.936Z,98656.19
2023-03-20T18:17:15.243Z,98656.19
2023-03-20T18:19:44.014Z,98650.25
2023-03-20T18:22:11.252Z,98657.00
2023-03-20T18:24:43.394Z,98655.41
2023-03-20T18:27:11.663Z,98656.81
2023-03-20T18:29:41.172Z,98656.38
2023-03-20T18:32:07.685Z,98652.38
2023-03-20T18:34:34.158Z,98655.13
2023-03-20T18:37:01.303Z,98660.34
2023-03-20T18:39:27.871Z,98652.44
2023-03-20T18:41:54.540Z,98662.16
2023-03-20T18:44:21.761Z,98659.63
2023-03-20T18:46:49.434Z,98664.97
2023-03-20T18:49:17.986Z,98663.16
2023-03-20T18:51:45.688Z,98657.47
2023-03-20T18:54:12.693Z,98661.28
2023-03-20T18:56:39.243Z,98660.19
2023-03-20T18:59:10.482Z,98660.00
2023-03-20T19:01:37.129Z,98659.69
2023-03-20T19:04:03.665Z,98664.94
2023-03-20T19:06:32.031Z,98664.75
2023-03-20T19:08:58.879Z,98659.50
2023-03-20T19:11:25.554Z,98662.25
2023-03-20T19:13:53.841Z,98667.28
2023-03-20T19:16:25.805Z,98666.59
2023-03-20T19:18:58.864Z,98661.75
2023-03-20T19:21:28.921Z,98667.44
2023-03-20T19:24:05.948Z,98662.09
2023-03-20T19:26:35.747Z,98662.63
2023-03-20T19:29:10.041Z,98649.44
2023-03-20T19:31:36.896Z,98654.13
2023-03-20T19:34:03.414Z,98663.81
2023-03-20T19:36:36.791Z,98660.00
2023-03-20T19:39:07.373Z,98664.41
2023-03-20T19:41:34.258Z,98651.91
2023-03-20T19:44:01.510Z,98657.38
2023-03-20T19:46:44.032Z,98657.22
2023-03-20T19:49:30.206Z,98657.81
2023-03-20T19:51:57.443Z,98665.28
2023-03-20T19:54:24.027Z,98659.28
2023-03-20T19:56:50.588Z,98662.47
2023-03-20T19:59:17.371Z,98653.44
2023-03-20T20:01:45.580Z,98651.44
2023-03-20T20:04:12.377Z,98652.09
2023-03-20T20:06:39.904Z,98651.91
2023-03-20T20:09:07.018Z,98641.19
2023-03-20T20:11:33.546Z,98635.63
2023-03-20T20:14:09.349Z,98631.84
2023-03-20T20:16:39.475Z,98632.72
2023-03-20T20:19:06.284Z,98634.28
2023-03-20T20:24:19.789Z,98627.69
2023-03-20T20:27:11.646Z,98625.91
2023-03-20T20:29:41.908Z,98640.63
2023-03-20T20:32:08.618Z,98637.59
2023-03-20T20:40:14.238Z,98651.88
2023-03-20T20:42:42.441Z,98654.34
2023-03-20T20:45:14.556Z,98653.84
2023-03-20T20:47:44.797Z,98649.00
2023-03-20T20:50:15.285Z,98655.34
2023-03-20T20:52:42.860Z,98655.75
2023-03-20T20:55:26.567Z,98650.44
2023-03-20T20:57:55.620Z,98651.94
2023-03-20T21:00:41.005Z,98647.03
2023-03-20T21:03:12.564Z,98648.63
2023-03-20T21:05:42.762Z,98646.84
2023-03-20T21:08:11.220Z,98644.66
2023-03-20T21:10:37.726Z,98643.53
2023-03-20T21:13:04.203Z,98650.56
2023-03-20T21:15:30.706Z,98654.50
2023-03-20T21:18:01.573Z,98649.84
2023-03-20T21:20:30.179Z,98645.66
2023-03-20T21:22:56.753Z,98646.84
2023-03-20T21:25:36.388Z,98648.31
2023-03-20T21:28:05.396Z,98644.75
2023-03-20T21:30:33.523Z,98643.66
2023-03-20T21:33:00.503Z,98646.09
2023-03-20T21:35:27.475Z,98644.41
2023-03-20T21:40:41.820Z,98645.69
2023-03-20T21:43:09.315Z,98637.50
2023-03-20T21:49:15.768Z,98644.25
2023-03-20T21:52:14.501Z,98643.19
2023-03-20T21:54:48.673Z,98649.13
2023-03-20T21:57:18.912Z,98647.09
2023-03-20T22:00:20.296Z,98649.47
2023-03-20T22:02:23.673Z,98655.59
2023-03-20T22:05:50.411Z,98648.72
2023-03-20T22:08:19.527Z,98651.69
2023-03-20T22:11:20.291Z,98649.91
2023-03-20T22:14:09.137Z,98640.22
2023-03-20T22:16:57.579Z,98646.03
2023-03-20T22:19:41.551Z,98646.97
2023-03-20T22:30:41.948Z,98647.47
2023-03-20T22:33:46.957Z,98655.19
2023-03-20T22:36:19.779Z,98651.47
2023-03-20T22:39:11.731Z,98654.03
2023-03-20T22:46:45.672Z,98646.94
2023-03-20T22:49:13.277Z,98635.84
2023-03-20T22:51:52.106Z,98641.38
2023-03-20T22:54:24.444Z,98639.94
2023-03-20T22:56:50.921Z,98634.47
2023-03-20T22:59:17.387Z,98628.44
2023-03-20T23:01:43.871Z,98624.16
2023-03-20T23:04:10.373Z,98637.84
2023-03-20T23:06:36.880Z,98633.63
2023-03-20T23:09:12.843Z,98622.91
2023-03-20T23:11:41.769Z,98635.22
2023-03-20T23:14:18.163Z,98632.50
2023-03-20T23:16:49.653Z,98631.66
2023-03-20T23:19:16.673Z,98623.75
2023-03-20T23:21:43.269Z,98628.03
2023-03-20T23:24:09.896Z,98620.66
2023-03-20T23:26:36.473Z,98624.97
2023-03-20T23:29:03.521Z,98615.03
2023-03-20T23:31:30.262Z,98610.19
2023-03-20T23:33:58.108Z,98616.09
2023-03-20T23:36:36.461Z,98610.38
2023-03-20T23:39:07.002Z,98611.75
2023-03-20T23:42:03.975Z,98616.56
2023-03-20T23:44:20.872Z,98612.41
2023-03-20T23:46:48.352Z,98610.00
2023-03-20T23:49:16.346Z,98610.41
2023-03-20T23:51:42.891Z,98607.47
2023-03-20T23:54:09.372Z,98599.09
2023-03-20T23:56:35.861Z,98603.22
2023-03-20T23:59:14.704Z,98598.38
